createdAt,value
2019-04-01T00:00:38.616Z,102338.00
2019-04-01T00:03:09.554Z,102330.00
2019-04-01T00:05:38.914Z,102336.00
2019-04-01T00:08:08.306Z,102333.00
2019-04-01T00:10:37.674Z,102345.00
2019-04-01T00:13:07.111Z,102351.00
2019-04-01T00:15:36.502Z,102347.00
2019-04-01T00:18:05.883Z,102343.00
2019-04-01T00:20:35.248Z,102342.00
2019-04-01T00:23:04.875Z,102351.00
2019-04-01T00:25:34.289Z,102352.00
2019-04-01T00:28:03.656Z,102345.00
2019-04-01T00:30:33.338Z,102338.00
2019-04-01T00:33:03.052Z,102337.00
2019-04-01T00:35:32.413Z,102335.00
2019-04-01T00:38:01.803Z,102341.00
2019-04-01T00:40:31.175Z,102337.00
2019-04-01T00:43:04.909Z,102342.00
2019-04-01T00:45:36.238Z,102334.00
2019-04-01T00:48:05.594Z,102351.00
2019-04-01T00:50:34.997Z,102345.00
2019-04-01T00:53:04.368Z,102341.00
2019-04-01T00:55:33.735Z,102347.00
2019-04-01T00:58:03.108Z,102352.00
2019-04-01T01:00:32.477Z,102353.00
2019-04-01T01:03:01.844Z,102346.00
2019-04-01T01:05:31.209Z,102336.00
2019-04-01T01:08:00.772Z,102347.00
2019-04-01T01:10:30.141Z,102355.00
2019-04-01T01:12:59.758Z,102355.00
2019-04-01T01:15:29.195Z,102350.00
2019-04-01T01:17:58.511Z,102351.00
2019-04-01T01:20:27.885Z,102353.00
2019-04-01T01:22:57.262Z,102342.00
2019-04-01T01:25:26.628Z,102354.00
2019-04-01T01:27:56.000Z,102354.00
2019-04-01T01:30:25.408Z,102356.00
2019-04-01T01:32:54.797Z,102359.00
2019-04-01T01:35:24.128Z,102352.00
2019-04-01T01:37:53.515Z,102357.00
2019-04-01T01:40:22.883Z,102352.00
2019-04-01T01:42:52.578Z,102348.00
2019-04-01T01:45:22.045Z,102348.00
2019-04-01T01:47:51.400Z,102349.00
2019-04-01T01:50:20.769Z,102355.00
2019-04-01T01:52:50.519Z,102350.00
2019-04-01T01:55:19.910Z,102362.00
2019-04-01T01:57:49.735Z,102364.00
2019-04-01T02:00:19.583Z,102363.00
2019-04-01T02:02:48.930Z,102375.00
2019-04-01T02:05:18.294Z,102372.00
2019-04-01T02:07:47.683Z,102369.00
2019-04-01T02:10:17.051Z,102368.00
2019-04-01T02:12:46.436Z,102367.00
2019-04-01T02:15:15.826Z,102369.00
2019-04-01T02:17:45.191Z,102372.00
2019-04-01T02:20:14.562Z,102369.00
2019-04-01T02:22:43.941Z,102363.00
2019-04-01T02:25:13.310Z,102367.00
2019-04-01T02:27:42.672Z,102363.00
2019-04-01T02:30:12.257Z,102368.00
2019-04-01T02:32:41.630Z,102374.00
2019-04-01T02:35:11.070Z,102367.00
2019-04-01T02:37:40.815Z,102378.00
2019-04-01T02:40:10.255Z,102373.00
2019-04-01T02:42:39.622Z,102374.00
2019-04-01T02:45:09.873Z,102370.00
2019-04-01T02:47:39.260Z,102375.00
2019-04-01T02:50:09.237Z,102369.00
2019-04-01T02:52:38.613Z,102370.00
2019-04-01T02:55:09.409Z,102358.00
2019-04-01T02:57:38.767Z,102367.00
2019-04-01T03:00:09.126Z,102376.00
2019-04-01T03:02:38.498Z,102376.00
2019-04-01T03:05:09.334Z,102369.00
2019-04-01T03:07:38.705Z,102372.00
2019-04-01T03:10:08.334Z,102357.00
2019-04-01T03:12:37.694Z,102373.00
2019-04-01T03:15:07.950Z,102376.00
2019-04-01T03:17:37.691Z,102375.00
2019-04-01T03:20:08.794Z,102374.00
2019-04-01T03:22:38.446Z,102369.00
2019-04-01T03:25:08.638Z,102377.00
2019-04-01T03:27:38.007Z,102373.00
2019-04-01T03:30:08.787Z,102378.00
2019-04-01T03:32:44.164Z,102375.00
2019-04-01T03:35:09.294Z,102365.00
2019-04-01T03:37:38.667Z,102371.00
2019-04-01T03:40:08.648Z,102368.00
2019-04-01T03:42:38.022Z,102377.00
2019-04-01T03:45:09.011Z,102374.00
2019-04-01T03:47:38.368Z,102383.00
2019-04-01T03:50:07.724Z,102377.00
2019-04-01T03:52:37.098Z,102375.00
2019-04-01T03:55:07.125Z,102374.00
2019-04-01T03:57:36.526Z,102369.00
2019-04-01T04:00:07.803Z,102361.00
2019-04-01T04:02:37.175Z,102357.00
2019-04-01T04:05:07.650Z,102375.00
2019-04-01T04:07:37.052Z,102371.00
2019-04-01T04:10:08.613Z,102362.00
2019-04-01T04:12:37.973Z,102366.00
2019-04-01T04:15:08.442Z,102377.00
2019-04-01T04:17:37.804Z,102374.00
2019-04-01T04:20:08.348Z,102388.00
2019-04-01T04:22:37.723Z,102383.00
2019-04-01T04:25:07.692Z,102382.00
2019-04-01T04:27:37.054Z,102386.00
2019-04-01T04:30:09.793Z,102376.00
2019-04-01T04:32:39.141Z,102369.00
2019-04-01T04:35:09.140Z,102373.00
2019-04-01T04:37:38.530Z,102388.00
2019-04-01T04:40:08.745Z,102386.00
2019-04-01T04:42:38.114Z,102394.00
2019-04-01T04:45:08.478Z,102403.00
2019-04-01T04:47:37.834Z,102398.00
2019-04-01T04:50:08.335Z,102399.00
2019-04-01T04:52:37.743Z,102400.00
2019-04-01T04:55:07.243Z,102395.00
2019-04-01T04:57:36.599Z,102408.00
2019-04-01T05:00:09.574Z,102403.00
2019-04-01T05:02:38.921Z,102412.00
2019-04-01T05:05:09.403Z,102414.00
2019-04-01T05:07:39.155Z,102412.00
2019-04-01T05:10:09.433Z,102418.00
2019-04-01T05:12:38.795Z,102412.00
2019-04-01T05:15:09.112Z,102411.00
2019-04-01T05:17:38.476Z,102420.00
2019-04-01T05:20:07.915Z,102425.00
2019-04-01T05:22:38.615Z,102417.00
2019-04-01T05:25:08.539Z,102430.00
2019-04-01T05:27:39.320Z,102426.00
2019-04-01T05:30:10.414Z,102430.00
2019-04-01T05:32:43.178Z,102442.00
2019-04-01T05:35:12.710Z,102430.00
2019-04-01T05:37:42.154Z,102440.00
2019-04-01T05:40:11.665Z,102429.00
2019-04-01T05:42:41.033Z,102440.00
2019-04-01T05:45:11.511Z,102437.00
2019-04-01T05:47:42.508Z,102434.00
2019-04-01T05:50:12.381Z,102441.00
2019-04-01T05:52:41.823Z,102430.00
2019-04-01T05:55:11.257Z,102449.00
2019-04-01T05:57:40.694Z,102442.00
2019-04-01T06:00:12.936Z,102438.00
2019-04-01T06:02:42.764Z,102447.00
2019-04-01T06:05:12.962Z,102444.00
2019-04-01T06:07:43.202Z,102453.00
2019-04-01T06:10:12.822Z,102444.00
2019-04-01T06:12:43.075Z,102444.00
2019-04-01T06:15:12.596Z,102453.00
2019-04-01T06:17:41.955Z,102457.00
2019-04-01T06:20:11.450Z,102449.00
2019-04-01T06:22:40.865Z,102448.00
2019-04-01T06:25:10.633Z,102456.00
2019-04-01T06:27:40.756Z,102461.00
2019-04-01T06:30:10.788Z,102448.00
2019-04-01T06:32:40.153Z,102467.00
2019-04-01T06:35:09.828Z,102455.00
2019-04-01T06:37:39.206Z,102446.00
2019-04-01T06:40:08.813Z,102459.00
2019-04-01T06:42:38.483Z,102464.00
2019-04-01T06:45:09.804Z,102468.00
2019-04-01T06:47:39.166Z,102473.00
2019-04-01T06:50:09.256Z,102466.00
2019-04-01T06:52:38.638Z,102479.00
2019-04-01T06:55:08.397Z,102472.00
2019-04-01T06:57:37.758Z,102472.00
2019-04-01T07:00:08.297Z,102479.00
2019-04-01T07:02:38.101Z,102473.00
2019-04-01T07:05:12.629Z,102478.00
2019-04-01T07:07:41.006Z,102477.00
2019-04-01T07:10:10.986Z,102425.00
2019-04-01T07:12:40.338Z,102484.00
2019-04-01T07:15:10.039Z,102484.00
2019-04-01T07:17:39.405Z,102484.00
2019-04-01T07:20:09.267Z,102491.00
2019-04-01T07:22:38.903Z,102489.00
2019-04-01T07:25:08.928Z,102485.00
2019-04-01T07:27:38.430Z,102481.00
2019-04-01T07:30:09.064Z,102481.00
2019-04-01T07:32:38.435Z,102493.00
2019-04-01T07:35:08.661Z,102488.00
2019-04-01T07:37:38.037Z,102489.00
2019-04-01T07:40:07.960Z,102488.00
2019-04-01T07:42:37.329Z,102489.00
2019-04-01T07:45:08.344Z,102488.00
2019-04-01T07:47:37.785Z,102483.00
2019-04-01T07:50:12.061Z,102490.00
2019-04-01T07:52:41.095Z,102489.00
2019-04-01T07:57:35.330Z,102490.00
2019-04-01T08:00:07.152Z,102496.00
2019-04-01T08:02:36.631Z,102490.00
2019-04-01T08:05:07.374Z,102495.00
2019-04-01T08:07:36.818Z,102500.00
2019-04-01T08:10:08.310Z,102489.00
2019-04-01T08:12:37.745Z,102502.00
2019-04-01T08:15:09.722Z,102496.00
2019-04-01T08:17:39.155Z,102505.00
2019-04-01T08:20:09.330Z,102504.00
2019-04-01T08:22:38.704Z,102500.00
2019-04-01T08:25:08.494Z,102495.00
2019-04-01T08:27:37.873Z,102499.00
2019-04-01T08:30:10.190Z,102492.00
2019-04-01T08:32:39.556Z,102498.00
2019-04-01T08:35:09.405Z,102488.00
2019-04-01T08:37:40.506Z,102499.00
2019-04-01T08:40:10.819Z,102490.00
2019-04-01T08:42:40.274Z,102496.00
2019-04-01T08:45:10.573Z,102484.00
2019-04-01T08:47:40.307Z,102487.00
2019-04-01T08:50:10.231Z,102491.00
2019-04-01T08:52:40.226Z,102486.00
2019-04-01T08:55:09.729Z,102493.00
2019-04-01T08:57:39.261Z,102498.00
2019-04-01T09:00:10.273Z,102487.00
2019-04-01T09:02:39.635Z,102486.00
2019-04-01T09:05:09.724Z,102483.00
2019-04-01T09:07:39.315Z,102482.00
2019-04-01T09:10:09.141Z,102484.00
2019-04-01T09:12:39.627Z,102477.00
2019-04-01T09:15:10.692Z,102481.00
2019-04-01T09:17:40.696Z,102478.00
2019-04-01T09:20:11.010Z,102479.00
2019-04-01T09:22:40.471Z,102473.00
2019-04-01T09:25:09.841Z,102470.00
2019-04-01T09:27:39.201Z,102474.00
2019-04-01T09:30:12.355Z,102476.00
2019-04-01T09:32:41.758Z,102469.00
2019-04-01T09:35:11.537Z,102460.00
2019-04-01T09:37:40.914Z,102451.00
2019-04-01T09:40:10.694Z,102462.00
2019-04-01T09:42:40.065Z,102467.00
2019-04-01T09:45:10.076Z,102466.00
2019-04-01T09:47:39.689Z,102464.00
2019-04-01T09:50:09.575Z,102457.00
2019-04-01T09:52:39.239Z,102465.00
2019-04-01T09:55:09.423Z,102451.00
2019-04-01T09:57:38.790Z,102445.00
2019-04-01T10:00:11.918Z,102447.00
2019-04-01T10:02:41.276Z,102438.00
2019-04-01T10:05:11.106Z,102438.00
2019-04-01T10:07:41.443Z,102422.00
2019-04-01T10:10:12.661Z,102440.00
2019-04-01T10:12:42.028Z,102429.00
2019-04-01T10:15:13.023Z,102435.00
2019-04-01T10:17:42.380Z,102429.00
2019-04-01T10:20:12.176Z,102425.00
2019-04-01T10:22:41.562Z,102437.00
2019-04-01T10:25:12.459Z,102423.00
2019-04-01T10:27:41.829Z,102425.00
2019-04-01T10:30:12.841Z,102417.00
2019-04-01T10:32:42.175Z,102403.00
2019-04-01T10:35:11.891Z,102407.00
2019-04-01T10:37:41.268Z,102413.00
2019-04-01T10:40:11.348Z,102399.00
2019-04-01T10:42:40.709Z,102398.00
2019-04-01T10:45:12.198Z,102402.00
2019-04-01T10:47:41.600Z,102392.00
2019-04-01T10:50:11.899Z,102393.00
2019-04-01T10:52:44.056Z,102394.00
2019-04-01T10:55:13.233Z,102386.00
2019-04-01T10:57:43.603Z,102388.00
2019-04-01T11:00:14.346Z,102369.00
2019-04-01T11:02:43.766Z,102365.00
2019-04-01T11:05:13.655Z,102364.00
2019-04-01T11:07:43.116Z,102372.00
2019-04-01T11:10:13.026Z,102360.00
2019-04-01T11:12:42.952Z,102370.00
2019-04-01T11:15:15.578Z,102355.00
2019-04-01T11:17:44.575Z,102369.00
2019-04-01T11:20:14.092Z,102362.00
2019-04-01T11:22:43.447Z,102359.00
2019-04-01T11:25:14.450Z,102354.00
2019-04-01T11:27:43.818Z,102345.00
2019-04-01T11:30:14.658Z,102348.00
2019-04-01T11:32:44.056Z,102359.00
2019-04-01T11:35:13.865Z,102347.00
2019-04-01T11:37:43.273Z,102336.00
2019-04-01T11:40:13.203Z,102331.00
2019-04-01T11:42:42.589Z,102318.00
2019-04-01T11:45:12.331Z,102327.00
2019-04-01T11:47:41.810Z,102322.00
2019-04-01T11:50:11.610Z,102323.00
2019-04-01T11:52:41.490Z,102321.00
2019-04-01T11:55:10.912Z,102320.00
2019-04-01T11:57:40.983Z,102319.00
2019-04-01T12:00:16.263Z,102317.00
2019-04-01T12:02:46.303Z,102310.00
2019-04-01T12:05:16.201Z,102309.00
2019-04-01T12:07:46.221Z,102301.00
2019-04-01T12:10:15.658Z,102300.00
2019-04-01T12:12:45.031Z,102311.00
2019-04-01T12:15:14.549Z,102303.00
2019-04-01T12:17:43.905Z,102299.00
2019-04-01T12:20:13.412Z,102300.00
2019-04-01T12:22:45.611Z,102278.00
2019-04-01T12:25:13.903Z,102294.00
2019-04-01T12:27:43.275Z,102285.00
2019-04-01T12:30:13.300Z,102276.00
2019-04-01T12:32:42.676Z,102278.00
2019-04-01T12:35:12.390Z,102274.00
2019-04-01T12:37:41.760Z,102274.00
2019-04-01T12:40:11.545Z,102266.00
2019-04-01T12:42:40.906Z,102267.00
2019-04-01T12:45:10.909Z,102256.00
2019-04-01T12:47:43.235Z,102256.00
2019-04-01T12:50:11.862Z,102252.00
2019-04-01T12:52:41.789Z,102250.00
2019-04-01T12:55:11.564Z,102235.00
2019-04-01T12:57:40.939Z,102241.00
2019-04-01T13:00:12.196Z,102228.00
2019-04-01T13:02:41.562Z,102230.00
2019-04-01T13:05:11.372Z,102230.00
2019-04-01T13:07:40.757Z,102220.00
2019-04-01T13:10:10.356Z,102218.00
2019-04-01T13:12:39.736Z,102210.00
2019-04-01T13:15:10.443Z,102219.00
2019-04-01T13:17:40.079Z,102204.00
2019-04-01T13:20:09.879Z,102201.00
2019-04-01T13:22:39.260Z,102194.00
2019-04-01T13:25:09.259Z,102194.00
2019-04-01T13:27:38.616Z,102179.00
2019-04-01T13:30:10.358Z,102177.00
2019-04-01T13:32:39.672Z,102175.00
2019-04-01T13:35:09.907Z,102177.00
2019-04-01T13:37:39.669Z,102165.00
2019-04-01T13:40:11.355Z,102159.00
2019-04-01T13:42:40.737Z,102165.00
2019-04-01T13:45:10.243Z,102168.00
2019-04-01T13:47:41.300Z,102142.00
2019-04-01T13:50:10.835Z,102144.00
2019-04-01T13:52:40.396Z,102146.00
2019-04-01T13:55:10.391Z,102139.00
2019-04-01T13:57:39.730Z,102130.00
2019-04-01T14:00:10.362Z,102134.00
2019-04-01T14:02:39.709Z,102137.00
2019-04-01T14:05:09.223Z,102137.00
2019-04-01T14:07:38.603Z,102120.00
2019-04-01T14:10:08.586Z,102118.00
2019-04-01T14:12:37.955Z,102122.00
2019-04-01T14:15:10.881Z,102121.00
2019-04-01T14:17:40.232Z,102113.00
2019-04-01T14:20:10.080Z,102116.00
2019-04-01T14:22:39.458Z,102114.00
2019-04-01T14:25:09.770Z,102100.00
2019-04-01T14:27:39.486Z,102103.00
2019-04-01T14:30:10.054Z,102100.00
2019-04-01T14:32:39.427Z,102088.00
2019-04-01T14:35:10.166Z,102088.00
2019-04-01T14:37:40.230Z,102085.00
2019-04-01T14:40:11.824Z,102070.00
2019-04-01T14:42:41.263Z,102075.00
2019-04-01T14:45:11.952Z,102069.00
2019-04-01T14:47:55.829Z,102063.00
2019-04-01T14:50:13.147Z,102050.00
2019-04-01T14:52:42.805Z,102062.00
2019-04-01T14:55:12.689Z,102054.00
2019-04-01T14:57:42.061Z,102047.00
2019-04-01T15:00:16.384Z,102049.00
2019-04-01T15:02:45.748Z,102041.00
2019-04-01T15:05:15.185Z,102029.00
2019-04-01T15:07:45.261Z,102032.00
2019-04-01T15:10:16.174Z,102036.00
2019-04-01T15:12:45.581Z,102012.00
2019-04-01T15:15:15.664Z,102022.00
2019-04-01T15:17:45.031Z,102014.00
2019-04-01T15:20:15.517Z,102019.00
2019-04-01T15:22:44.929Z,102013.00
2019-04-01T15:25:14.438Z,102008.00
2019-04-01T15:27:43.806Z,102008.00
2019-04-01T15:30:14.461Z,101996.00
2019-04-01T15:32:43.932Z,102002.00
2019-04-01T15:35:13.838Z,102008.00
2019-04-01T15:37:43.218Z,101990.00
2019-04-01T15:40:13.915Z,101988.00
2019-04-01T15:42:43.528Z,101991.00
2019-04-01T15:45:13.073Z,101992.00
2019-04-01T15:47:42.443Z,101988.00
2019-04-01T15:50:11.883Z,101985.00
2019-04-01T15:52:41.816Z,101981.00
2019-04-01T15:55:11.399Z,101971.00
2019-04-01T15:57:40.771Z,101976.00
2019-04-01T16:00:12.261Z,101972.00
2019-04-01T16:02:41.637Z,101972.00
2019-04-01T16:05:11.081Z,101971.00
2019-04-01T16:07:41.865Z,101959.00
2019-04-01T16:10:12.404Z,101961.00
2019-04-01T16:12:41.846Z,101952.00
2019-04-01T16:15:12.624Z,101958.00
2019-04-01T16:17:42.003Z,101955.00
2019-04-01T16:20:12.628Z,101949.00
2019-04-01T16:22:43.645Z,101957.00
2019-04-01T16:25:13.807Z,101945.00
2019-04-01T16:27:43.311Z,101949.00
2019-04-01T16:30:13.168Z,101937.00
2019-04-01T16:32:42.531Z,101939.00
2019-04-01T16:35:12.340Z,101952.00
2019-04-01T16:37:41.724Z,101935.00
2019-04-01T16:40:12.212Z,101928.00
2019-04-01T16:42:41.575Z,101931.00
2019-04-01T16:45:12.442Z,101932.00
2019-04-01T16:47:42.911Z,101935.00
2019-04-01T16:50:13.094Z,101930.00
2019-04-01T16:52:42.674Z,101933.00
2019-04-01T16:55:17.953Z,101942.00
2019-04-01T16:57:45.913Z,101936.00
2019-04-01T17:00:18.780Z,101933.00
2019-04-01T17:02:48.139Z,101934.00
2019-04-01T17:05:22.164Z,101937.00
2019-04-01T17:07:51.887Z,101934.00
2019-04-01T17:10:23.458Z,101931.00
2019-04-01T17:12:52.832Z,101936.00
2019-04-01T17:15:22.521Z,101941.00
2019-04-01T17:17:52.230Z,101949.00
2019-04-01T17:20:21.663Z,101936.00
2019-04-01T17:22:51.046Z,101928.00
2019-04-01T17:25:20.982Z,101940.00
2019-04-01T17:27:50.390Z,101940.00
2019-04-01T17:30:20.924Z,101934.00
2019-04-01T17:32:50.291Z,101939.00
2019-04-01T17:35:19.666Z,101941.00
2019-04-01T17:37:49.045Z,101932.00
2019-04-01T17:40:19.222Z,101939.00
2019-04-01T17:42:48.586Z,101947.00
2019-04-01T17:45:31.444Z,101928.00
2019-04-01T17:48:00.848Z,101930.00
2019-04-01T17:50:30.220Z,101935.00
2019-04-01T17:52:59.617Z,101927.00
2019-04-01T17:55:29.056Z,101934.00
2019-04-01T17:57:58.422Z,101945.00
2019-04-01T18:00:29.447Z,101938.00
2019-04-01T18:02:58.818Z,101938.00
2019-04-01T18:05:28.189Z,101940.00
2019-04-01T18:07:58.146Z,101947.00
2019-04-01T18:10:28.340Z,101939.00
2019-04-01T18:12:58.163Z,101940.00
2019-04-01T18:15:27.546Z,101943.00
2019-04-01T18:17:56.910Z,101937.00
2019-04-01T18:20:26.279Z,101946.00
2019-04-01T18:22:56.240Z,101949.00
2019-04-01T18:25:26.508Z,101944.00
2019-04-01T18:27:55.867Z,101952.00
2019-04-01T18:30:26.711Z,101954.00
2019-04-01T18:32:56.073Z,101954.00
2019-04-01T18:35:25.744Z,101946.00
2019-04-01T18:37:55.091Z,101950.00
2019-04-01T18:40:32.688Z,101946.00
2019-04-01T18:42:55.607Z,101954.00
2019-04-01T18:45:24.990Z,101962.00
2019-04-01T18:47:54.350Z,101955.00
2019-04-01T18:50:23.715Z,101959.00
2019-04-01T18:52:53.558Z,101956.00
2019-04-01T18:55:22.923Z,101962.00
2019-04-01T18:57:52.302Z,101953.00
2019-04-01T19:00:21.896Z,101958.00
2019-04-01T19:02:51.260Z,101961.00
2019-04-01T19:05:20.631Z,101961.00
2019-04-01T19:07:50.007Z,101962.00
2019-04-01T19:10:19.446Z,101963.00
2019-04-01T19:12:48.819Z,101961.00
2019-04-01T19:15:18.232Z,101965.00
2019-04-01T19:17:47.595Z,101971.00
2019-04-01T19:20:17.417Z,101965.00
2019-04-01T19:22:46.794Z,101971.00
2019-04-01T19:25:16.167Z,101963.00
2019-04-01T19:27:45.536Z,101963.00
2019-04-01T19:30:15.631Z,101956.00
2019-04-01T19:32:45.445Z,101961.00
2019-04-01T19:35:15.441Z,101956.00
2019-04-01T19:37:44.843Z,101955.00
2019-04-01T19:40:15.928Z,101957.00
2019-04-01T19:42:45.294Z,101954.00
2019-04-01T19:45:15.283Z,101950.00
2019-04-01T19:47:44.662Z,101954.00
2019-04-01T19:50:14.632Z,101941.00
2019-04-01T19:52:44.485Z,101952.00
2019-04-01T19:55:14.032Z,101952.00
2019-04-01T19:57:43.407Z,101942.00
2019-04-01T20:00:26.591Z,101955.00
2019-04-01T20:02:44.356Z,101948.00
2019-04-01T20:05:13.862Z,101948.00
2019-04-01T20:07:44.120Z,101949.00
2019-04-01T20:10:14.400Z,101943.00
2019-04-01T20:12:43.767Z,101908.00
2019-04-01T20:15:14.913Z,101940.00
2019-04-01T20:17:44.277Z,101946.00
2019-04-01T20:20:15.192Z,101946.00
2019-04-01T20:22:44.562Z,101943.00
2019-04-01T20:25:14.548Z,101941.00
2019-04-01T20:27:44.326Z,101944.00
2019-04-01T20:30:14.901Z,101941.00
2019-04-01T20:32:44.265Z,101936.00
2019-04-01T20:35:23.240Z,101948.00
2019-04-01T20:37:45.365Z,101933.00
2019-04-01T20:40:16.021Z,101929.00
2019-04-01T20:42:46.352Z,101927.00
2019-04-01T20:45:16.578Z,101937.00
2019-04-01T20:47:45.948Z,101931.00
2019-04-01T20:50:16.924Z,101936.00
2019-04-01T20:52:46.697Z,101920.00
2019-04-01T20:55:16.679Z,101936.00
2019-04-01T20:57:46.429Z,101922.00
2019-04-01T21:00:17.513Z,101922.00
2019-04-01T21:02:46.890Z,101914.00
2019-04-01T21:05:16.961Z,101914.00
2019-04-01T21:07:47.255Z,101907.00
2019-04-01T21:10:17.601Z,101910.00
2019-04-01T21:12:46.977Z,101910.00
2019-04-01T21:15:17.268Z,101902.00
2019-04-01T21:17:46.639Z,101903.00
2019-04-01T21:20:16.028Z,101905.00
2019-04-01T21:22:45.402Z,101889.00
2019-04-01T21:25:14.851Z,101896.00
2019-04-01T21:27:44.556Z,101899.00
2019-04-01T21:30:16.140Z,101898.00
2019-04-01T21:32:45.743Z,101878.00
2019-04-01T21:35:15.157Z,101884.00
2019-04-01T21:37:44.921Z,101891.00
2019-04-01T21:40:14.833Z,101882.00
2019-04-01T21:42:44.276Z,101879.00
2019-04-01T21:45:15.094Z,101885.00
2019-04-01T21:47:45.156Z,101885.00
2019-04-01T21:50:15.142Z,101880.00
2019-04-01T21:52:44.527Z,101875.00
2019-04-01T21:55:14.552Z,101870.00
2019-04-01T21:57:43.918Z,101859.00
2019-04-01T22:00:18.032Z,101845.00
2019-04-01T22:02:46.881Z,101860.00
2019-04-01T22:05:16.607Z,101865.00
2019-04-01T22:07:45.980Z,101852.00
2019-04-01T22:10:15.343Z,101854.00
2019-04-01T22:12:44.705Z,101852.00
2019-04-01T22:15:14.085Z,101857.00
2019-04-01T22:17:43.454Z,101839.00
2019-04-01T22:20:12.896Z,101842.00
2019-04-01T22:22:42.726Z,101849.00
2019-04-01T22:25:12.165Z,101840.00
2019-04-01T22:27:41.529Z,101832.00
2019-04-01T22:30:12.227Z,101830.00
2019-04-01T22:32:42.132Z,101826.00
2019-04-01T22:35:11.669Z,101821.00
2019-04-01T22:37:41.045Z,101822.00
2019-04-01T22:40:12.163Z,101815.00
2019-04-01T22:42:41.521Z,101816.00
2019-04-01T22:45:11.341Z,101812.00
2019-04-01T22:47:40.951Z,101820.00
2019-04-01T22:50:10.953Z,101821.00
2019-04-01T22:52:42.163Z,101812.00
2019-04-01T22:55:11.411Z,101808.00
2019-04-01T22:57:40.775Z,101799.00
2019-04-01T23:00:12.672Z,101806.00
2019-04-01T23:02:42.395Z,101803.00
2019-04-01T23:05:12.444Z,101800.00
2019-04-01T23:07:41.819Z,101791.00
2019-04-01T23:10:11.478Z,101792.00
2019-04-01T23:12:41.192Z,101787.00
2019-04-01T23:15:11.033Z,101776.00
2019-04-01T23:17:40.383Z,101778.00
2019-04-01T23:20:10.056Z,101782.00
2019-04-01T23:22:40.063Z,101780.00
2019-04-01T23:25:09.694Z,101787.00
2019-04-01T23:27:39.058Z,101782.00
2019-04-01T23:30:11.379Z,101784.00
2019-04-01T23:32:41.998Z,101775.00
2019-04-01T23:35:12.560Z,101774.00
2019-04-01T23:37:42.338Z,101762.00
2019-04-01T23:40:12.066Z,101767.00
2019-04-01T23:42:41.614Z,101762.00
2019-04-01T23:45:11.612Z,101762.00
2019-04-01T23:47:40.972Z,101754.00
2019-04-01T23:50:10.414Z,101756.00
2019-04-01T23:52:39.787Z,101760.00
2019-04-01T23:55:09.357Z,101760.00
2019-04-01T23:57:38.717Z,101744.00
